createdAt,value
2023-02-02T00:00:13.595Z,2.63
2023-02-02T00:04:19.415Z,1.97
2023-02-02T00:08:24.540Z,2.20
2023-02-02T00:12:28.246Z,2.80
2023-02-02T00:16:42.150Z,2.93
2023-02-02T00:20:49.408Z,1.23
2023-02-02T00:24:54.455Z,1.27
2023-02-02T00:28:58.301Z,2.10
2023-02-02T00:33:01.890Z,2.23
2023-02-02T00:37:05.588Z,1.20
2023-02-02T00:41:10.810Z,0.73
2023-02-02T00:45:18.734Z,1.87
2023-02-02T00:49:22.365Z,1.67
2023-02-02T00:53:26.156Z,0.83
2023-02-02T00:57:31.121Z,0.50
2023-02-02T01:01:35.143Z,1.37
2023-02-02T01:05:38.790Z,1.63
2023-02-02T01:09:42.547Z,0.80
2023-02-02T01:13:47.695Z,0.60
2023-02-02T01:17:53.468Z,0.60
2023-02-02T01:21:57.048Z,0.53
2023-02-02T01:26:02.502Z,0.50
2023-02-02T01:30:08.929Z,0.37
2023-02-02T01:34:12.819Z,1.87
2023-02-02T01:38:16.972Z,0.90
2023-02-02T01:42:23.056Z,0.40
2023-02-02T01:46:30.215Z,1.13
2023-02-02T01:50:35.941Z,0.63
2023-02-02T01:54:42.008Z,0.43
2023-02-02T01:58:47.613Z,0.50
2023-02-02T02:02:54.238Z,0.50
2023-02-02T02:06:58.061Z,0.53
2023-02-02T02:11:01.677Z,0.40
2023-02-02T02:15:23.396Z,1.37
2023-02-02T02:20:11.558Z,0.50
2023-02-02T02:25:01.130Z,0.53
2023-02-02T02:29:30.365Z,0.60
2023-02-02T02:33:46.398Z,0.53
2023-02-02T02:37:55.621Z,0.40
2023-02-02T02:42:04.175Z,0.60
2023-02-02T02:46:09.316Z,0.60
2023-02-02T02:50:14.709Z,0.87
2023-02-02T02:54:22.489Z,0.50
2023-02-02T02:58:34.580Z,0.43
2023-02-02T03:02:44.671Z,0.40
2023-02-02T03:06:54.291Z,0.40
2023-02-02T03:10:59.954Z,0.30
2023-02-02T03:15:07.579Z,0.40
2023-02-02T03:19:11.279Z,0.40
2023-02-02T03:23:16.490Z,0.40
2023-02-02T03:27:20.325Z,0.50
2023-02-02T03:31:24.129Z,0.53
2023-02-02T03:35:28.055Z,0.47
2023-02-02T03:39:33.003Z,0.40
2023-02-02T03:43:36.877Z,0.83
2023-02-02T03:47:40.418Z,0.97
2023-02-02T03:51:45.083Z,0.60
2023-02-02T03:55:50.021Z,0.40
2023-02-02T03:59:53.775Z,0.40
2023-02-02T04:03:57.597Z,0.60
2023-02-02T04:08:02.357Z,0.50
2023-02-02T04:12:07.681Z,0.40
2023-02-02T04:16:12.447Z,2.00
2023-02-02T04:20:16.315Z,0.37
2023-02-02T04:24:19.894Z,1.70
2023-02-02T04:28:25.636Z,0.77
2023-02-02T04:32:29.169Z,0.60
2023-02-02T04:36:32.874Z,0.50
2023-02-02T04:40:39.569Z,0.50
2023-02-02T04:44:46.336Z,0.50
2023-02-02T04:48:50.507Z,0.87
2023-02-02T04:52:54.073Z,0.60
2023-02-02T04:56:57.845Z,0.70
2023-02-02T05:01:03.262Z,1.00
2023-02-02T05:05:09.292Z,0.60
2023-02-02T05:09:12.848Z,0.40
2023-02-02T05:13:16.548Z,0.60
2023-02-02T05:17:21.487Z,0.40
2023-02-02T05:21:25.286Z,1.17
2023-02-02T05:25:28.893Z,1.00
2023-02-02T05:29:33.109Z,1.40
2023-02-02T05:33:38.257Z,0.63
2023-02-02T05:37:44.320Z,0.40
2023-02-02T05:41:48.102Z,1.00
2023-02-02T05:45:51.616Z,7.97
2023-02-02T05:49:56.950Z,2.70
2023-02-02T05:54:01.232Z,1.37
2023-02-02T05:58:04.934Z,1.77
2023-02-02T06:02:08.721Z,2.70
2023-02-02T06:06:14.863Z,1.33
2023-02-02T06:10:18.799Z,0.67
2023-02-02T06:14:22.372Z,2.80
2023-02-02T06:18:26.145Z,1.40
2023-02-02T06:22:32.485Z,1.10
2023-02-02T06:26:36.469Z,1.37
2023-02-02T06:30:41.942Z,0.93
2023-02-02T06:34:46.960Z,0.90
2023-02-02T06:38:53.285Z,2.23
2023-02-02T06:43:00.108Z,1.00
2023-02-02T06:47:03.832Z,1.60
2023-02-02T06:51:07.810Z,3.90
2023-02-02T06:55:12.962Z,36.37
2023-02-02T06:59:16.494Z,3.57
2023-02-02T07:03:21.502Z,2.57
2023-02-02T07:07:25.065Z,3.47
2023-02-02T07:11:30.159Z,1.93
2023-02-02T07:15:34.265Z,1.93
2023-02-02T07:19:38.018Z,1.80
2023-02-02T07:23:41.601Z,2.17
2023-02-02T07:27:47.921Z,2.80
2023-02-02T07:31:51.496Z,2.97
2023-02-02T07:35:55.497Z,2.53
2023-02-02T07:39:59.065Z,3.10
2023-02-02T07:44:04.680Z,4.43
2023-02-02T07:48:11.527Z,4.47
2023-02-02T07:52:16.417Z,4.93
2023-02-02T07:56:22.941Z,6.80
2023-02-02T08:00:29.985Z,4.90
2023-02-02T08:04:35.218Z,7.03
2023-02-02T08:08:38.763Z,5.90
2023-02-02T08:12:42.512Z,4.10
2023-02-02T08:16:47.725Z,12.43
2023-02-02T08:20:52.814Z,8.63
2023-02-02T08:24:56.452Z,9.23
2023-02-02T08:29:02.130Z,13.67
2023-02-02T08:33:07.302Z,20.30
2023-02-02T08:37:10.773Z,13.40
2023-02-02T08:41:16.615Z,12.57
2023-02-02T08:46:04.564Z,9.77
2023-02-02T08:49:45.849Z,6.30
2023-02-02T08:53:49.562Z,7.77
2023-02-02T08:57:53.134Z,8.13
2023-02-02T09:01:57.130Z,7.53
2023-02-02T09:06:05.747Z,5.00
2023-02-02T09:10:10.046Z,6.07
2023-02-02T09:14:15.395Z,4.10
2023-02-02T09:18:19.143Z,5.80
2023-02-02T09:22:24.059Z,5.77
2023-02-02T09:26:29.781Z,4.37
2023-02-02T09:30:33.484Z,1.90
2023-02-02T09:34:39.016Z,1.30
2023-02-02T09:38:45.904Z,1.40
2023-02-02T09:43:10.922Z,1.10
2023-02-02T09:47:19.926Z,1.47
2023-02-02T09:51:26.435Z,1.23
2023-02-02T09:55:36.868Z,5.03
2023-02-02T09:59:43.194Z,1.27
2023-02-02T10:03:59.087Z,1.33
2023-02-02T10:08:07.162Z,4.30
2023-02-02T10:12:27.002Z,2.83
2023-02-02T10:16:36.313Z,1.57
2023-02-02T10:20:45.844Z,1.20
2023-02-02T10:24:49.386Z,1.93
2023-02-02T10:29:06.744Z,1.40
2023-02-02T10:33:21.112Z,1.47
2023-02-02T10:37:31.727Z,1.73
2023-02-02T10:41:43.072Z,1.80
2023-02-02T10:45:52.263Z,2.73
2023-02-02T10:50:09.393Z,2.10
2023-02-02T10:54:28.300Z,3.57
2023-02-02T10:58:37.217Z,3.70
2023-02-02T11:02:42.237Z,2.93
2023-02-02T11:06:52.776Z,3.60
2023-02-02T11:10:59.636Z,4.87
2023-02-02T11:15:06.323Z,4.30
2023-02-02T11:19:25.062Z,4.83
2023-02-02T11:23:30.043Z,4.90
2023-02-02T11:27:35.662Z,5.47
2023-02-02T11:31:39.476Z,6.60
2023-02-02T11:35:55.387Z,5.03
2023-02-02T11:40:24.274Z,5.23
2023-02-02T11:44:32.412Z,4.43
2023-02-02T11:48:38.915Z,4.97
2023-02-02T11:52:47.786Z,4.47
2023-02-02T11:56:53.126Z,5.77
2023-02-02T12:01:00.899Z,4.87
2023-02-02T12:05:36.315Z,4.90
2023-02-02T12:09:41.301Z,4.23
2023-02-02T12:13:55.762Z,4.17
2023-02-02T12:18:08.905Z,5.40
2023-02-02T12:22:25.988Z,5.67
2023-02-02T12:26:33.328Z,6.60
2023-02-02T12:30:44.118Z,6.00
2023-02-02T12:34:59.051Z,5.27
2023-02-02T12:39:23.665Z,5.80
2023-02-02T12:43:40.249Z,6.40
2023-02-02T12:47:55.733Z,5.40
2023-02-02T12:52:17.175Z,5.63
2023-02-02T12:56:29.536Z,4.90
2023-02-02T13:01:01.880Z,5.33
2023-02-02T13:09:52.633Z,5.93
2023-02-02T13:13:58.005Z,6.23
2023-02-02T13:18:06.146Z,6.90
2023-02-02T13:22:16.833Z,5.53
2023-02-02T13:26:22.866Z,5.53
2023-02-02T13:30:32.574Z,3.53
2023-02-02T13:34:46.760Z,4.30
2023-02-02T13:38:50.768Z,3.27
2023-02-02T13:42:59.468Z,3.27
2023-02-02T13:47:06.908Z,2.20
2023-02-02T13:51:55.043Z,2.77
2023-02-02T13:56:19.598Z,5.60
2023-02-02T14:00:25.593Z,2.77
2023-02-02T14:04:33.242Z,3.13
2023-02-02T14:08:39.093Z,5.33
2023-02-02T14:12:46.171Z,1.93
2023-02-02T14:16:52.174Z,2.97
2023-02-02T14:20:55.987Z,4.80
2023-02-02T14:25:00.957Z,3.73
2023-02-02T14:29:04.716Z,3.93
2023-02-02T14:33:27.536Z,5.90
2023-02-02T14:37:49.423Z,3.07
2023-02-02T14:42:48.406Z,3.30
2023-02-02T14:46:52.267Z,3.17
2023-02-02T14:50:57.770Z,4.50
2023-02-02T14:55:01.516Z,3.77
2023-02-02T14:59:07.886Z,5.03
2023-02-02T15:03:35.308Z,3.60
2023-02-02T15:08:08.229Z,2.80
2023-02-02T15:12:39.617Z,6.97
2023-02-02T15:16:46.354Z,4.57
2023-02-02T15:20:53.468Z,3.73
2023-02-02T15:24:59.335Z,2.90
2023-02-02T15:29:08.039Z,2.40
2023-02-02T15:33:25.197Z,2.37
2023-02-02T15:37:41.395Z,2.40
2023-02-02T15:41:46.353Z,3.60
2023-02-02T15:45:53.667Z,2.77
2023-02-02T15:49:59.733Z,3.03
2023-02-02T15:54:03.725Z,4.03
2023-02-02T15:58:27.793Z,2.30
2023-02-02T16:02:41.082Z,2.00
2023-02-02T16:06:47.061Z,3.30
2023-02-02T16:10:50.905Z,6.27
2023-02-02T16:14:56.287Z,5.87
2023-02-02T16:19:13.388Z,4.73
2023-02-02T16:23:25.224Z,3.60
2023-02-02T16:27:30.873Z,3.70
2023-02-02T16:31:37.079Z,2.60
2023-02-02T16:35:42.144Z,3.13
2023-02-02T16:39:47.344Z,4.87
2023-02-02T16:43:51.157Z,5.70
2023-02-02T16:47:55.033Z,4.30
2023-02-02T16:52:22.848Z,13.13
2023-02-02T16:56:33.014Z,2.97
2023-02-02T17:00:38.139Z,24.10
2023-02-02T17:04:43.139Z,15.10
2023-02-02T17:08:48.082Z,10.03
2023-02-02T17:12:53.893Z,2.67
2023-02-02T17:16:58.359Z,3.07
2023-02-02T17:21:07.806Z,3.80
2023-02-02T17:25:17.463Z,3.20
2023-02-02T17:29:23.950Z,2.03
2023-02-02T17:33:32.553Z,2.93
2023-02-02T17:37:37.687Z,2.43
2023-02-02T17:41:42.115Z,2.53
2023-02-02T17:45:47.055Z,5.27
2023-02-02T17:49:51.207Z,7.40
2023-02-02T17:54:00.010Z,18.70
2023-02-02T17:58:04.027Z,15.03
2023-02-02T18:02:14.188Z,14.60
2023-02-02T18:06:17.426Z,7.07
2023-02-02T18:10:24.742Z,9.97
2023-02-02T18:14:28.730Z,11.60
2023-02-02T18:18:34.940Z,4.97
2023-02-02T18:22:38.952Z,5.40
2023-02-02T18:26:43.260Z,3.57
2023-02-02T18:30:53.907Z,1.90
2023-02-02T18:34:58.823Z,3.73
2023-02-02T18:39:03.192Z,2.17
2023-02-02T18:43:07.689Z,2.20
2023-02-02T18:47:11.879Z,2.60
2023-02-02T18:51:22.089Z,2.77
2023-02-02T18:55:31.078Z,3.20
2023-02-02T18:59:41.413Z,3.23
2023-02-02T19:04:00.784Z,3.20
2023-02-02T19:08:18.072Z,2.63
2023-02-02T19:12:30.605Z,3.50
2023-02-02T19:16:38.789Z,6.40
2023-02-02T19:20:45.657Z,5.40
2023-02-02T19:25:06.315Z,7.70
2023-02-02T19:29:19.192Z,8.33
2023-02-02T19:33:28.164Z,8.33
2023-02-02T19:37:36.429Z,13.13
2023-02-02T19:41:45.807Z,11.33
2023-02-02T19:45:52.389Z,10.50
2023-02-02T19:49:58.602Z,7.07
2023-02-02T19:54:05.474Z,7.17
2023-02-02T19:58:21.206Z,5.83
2023-02-02T20:02:46.028Z,5.67
2023-02-02T20:06:59.104Z,4.73
2023-02-02T20:11:20.991Z,3.97
2023-02-02T20:15:35.424Z,4.53
2023-02-02T20:19:47.828Z,3.23
2023-02-02T20:23:52.330Z,7.23
2023-02-02T20:28:00.150Z,3.47
2023-02-02T20:32:09.775Z,5.53
2023-02-02T20:36:29.991Z,9.73
2023-02-02T20:40:36.141Z,8.90
2023-02-02T20:44:43.023Z,6.47
2023-02-02T20:48:49.993Z,3.60
2023-02-02T20:52:55.805Z,4.93
2023-02-02T20:57:00.173Z,4.03
2023-02-02T21:01:06.193Z,4.23
2023-02-02T21:05:11.683Z,4.87
2023-02-02T21:09:16.254Z,5.73
2023-02-02T21:13:21.264Z,5.50
2023-02-02T21:17:26.097Z,5.70
2023-02-02T21:21:31.646Z,4.40
2023-02-02T21:25:35.083Z,5.20
2023-02-02T21:29:40.248Z,4.50
2023-02-02T21:33:46.121Z,4.20
2023-02-02T21:37:54.569Z,6.27
2023-02-02T21:42:12.864Z,4.50
2023-02-02T21:46:20.968Z,5.77
2023-02-02T21:50:29.212Z,6.03
2023-02-02T21:54:39.065Z,8.20
2023-02-02T21:58:44.242Z,5.70
2023-02-02T22:02:50.854Z,5.53
2023-02-02T22:06:55.848Z,7.63
2023-02-02T22:11:00.481Z,10.60
2023-02-02T22:15:07.092Z,9.20
2023-02-02T22:19:26.025Z,9.97
2023-02-02T22:23:30.047Z,16.93
2023-02-02T22:27:43.250Z,16.43
2023-02-02T22:31:46.602Z,22.10
2023-02-02T22:35:50.158Z,18.37
2023-02-02T22:39:53.383Z,8.03
2023-02-02T22:43:58.390Z,13.73
2023-02-02T22:48:01.896Z,14.27
2023-02-02T22:52:06.447Z,14.37
2023-02-02T22:56:09.696Z,12.10
2023-02-02T23:00:18.449Z,12.30
2023-02-02T23:04:21.705Z,9.07
2023-02-02T23:08:26.311Z,9.17
2023-02-02T23:12:29.690Z,7.50
2023-02-02T23:16:34.539Z,8.87
2023-02-02T23:20:37.928Z,8.80
2023-02-02T23:24:41.167Z,7.23
2023-02-02T23:28:44.427Z,9.43
2023-02-02T23:32:49.143Z,6.80
2023-02-02T23:36:53.631Z,6.50
2023-02-02T23:40:58.374Z,10.77
2023-02-02T23:45:01.672Z,8.77
2023-02-02T23:49:06.866Z,10.23
2023-02-02T23:53:11.950Z,10.00
2023-02-02T23:57:16.305Z,12.80
